createdAt,value
2023-04-16T07:06:53.065Z,99.90
2023-04-16T09:02:33.714Z,99.90
2023-04-16T09:22:13.620Z,99.90
2023-04-16T09:25:03.142Z,99.90
2023-04-16T09:27:52.467Z,99.90
2023-04-16T09:30:54.201Z,99.90
2023-04-16T09:33:43.973Z,99.90
2023-04-16T09:36:34.245Z,99.90
2023-04-16T09:42:08.908Z,99.90
2023-04-16T09:50:22.008Z,99.90
2023-04-16T09:53:10.801Z,99.90
2023-04-16T09:56:11.860Z,99.90
2023-04-16T09:59:03.060Z,99.90
2023-04-16T10:01:59.748Z,99.90
2023-04-16T10:04:55.242Z,99.90
2023-04-16T10:07:44.577Z,99.90
2023-04-16T10:10:34.506Z,99.90
2023-04-16T10:13:23.514Z,99.90
2023-04-16T10:16:14.211Z,99.90
2023-04-16T10:19:06.244Z,99.90
2023-04-16T10:21:56.304Z,99.90
2023-04-16T10:24:46.846Z,99.90
2023-04-16T10:28:30.899Z,99.90
2023-04-16T11:43:25.493Z,99.90
2023-04-16T11:46:27.032Z,99.90
2023-04-16T12:01:45.730Z,98.50
2023-04-16T12:04:44.452Z,99.60
2023-04-16T12:07:33.382Z,99.90
2023-04-16T12:10:22.295Z,98.70
2023-04-16T12:13:15.236Z,97.30
2023-04-16T12:24:07.365Z,99.90
2023-04-16T12:27:23.995Z,97.10
2023-04-16T12:33:19.143Z,95.00
2023-04-16T12:36:19.201Z,96.70
2023-04-16T12:39:10.923Z,98.80
2023-04-16T12:42:01.197Z,99.90
2023-04-16T12:44:49.696Z,99.90
2023-04-16T12:47:38.346Z,99.90
2023-04-16T12:50:29.383Z,96.90
2023-04-16T12:53:18.259Z,93.70
2023-04-16T12:56:09.790Z,89.10
2023-04-16T12:58:58.655Z,90.10
2023-04-16T13:01:47.294Z,88.30
2023-04-16T13:04:36.068Z,87.70
2023-04-16T13:07:26.852Z,86.40
2023-04-16T13:10:15.466Z,87.00
2023-04-16T13:13:05.469Z,89.80
2023-04-16T13:15:54.056Z,90.10
2023-04-16T13:18:42.617Z,87.90
2023-04-16T13:21:31.709Z,85.20
2023-04-16T13:24:20.424Z,88.60
2023-04-16T13:27:11.471Z,88.30
2023-04-16T13:30:01.434Z,87.30
2023-04-16T13:32:50.158Z,88.40
2023-04-16T13:35:38.883Z,90.40
2023-04-16T13:38:27.931Z,88.20
2023-04-16T13:41:16.508Z,88.00
2023-04-16T13:44:05.192Z,81.60
2023-04-16T13:46:55.245Z,79.00
2023-04-16T13:49:44.227Z,80.20
2023-04-16T13:52:32.846Z,74.20
2023-04-16T13:55:21.435Z,73.80
2023-04-16T13:58:11.100Z,73.50
2023-04-16T14:01:13.053Z,71.30
2023-04-16T14:04:42.643Z,72.10
2023-04-16T14:08:05.424Z,67.90
2023-04-16T14:15:51.401Z,69.00
2023-04-16T14:30:10.094Z,74.40
2023-04-16T14:36:03.150Z,66.10
2023-04-16T14:39:04.630Z,58.50
2023-04-16T14:41:53.599Z,59.90
2023-04-16T14:44:42.185Z,51.70
2023-04-16T14:47:32.321Z,46.50
2023-04-16T14:50:30.818Z,51.10
2023-04-16T14:53:19.961Z,44.20
2023-04-16T14:56:08.540Z,48.20
2023-04-16T14:58:57.433Z,54.20
2023-04-16T15:01:46.582Z,55.80
2023-04-16T15:04:38.846Z,57.90
2023-04-16T15:07:29.545Z,59.30
2023-04-16T17:43:36.746Z,76.20
2023-04-16T17:46:28.645Z,77.70
